Terminal Aerodrome Forecast
Issued by NWS

Home | Current Version | Previous Version | Text Only | Print | Product List | Glossary Off
Versions: 1 2 3 4 5 6 7 8 9 10 11 12 13 14 15 16 17 18

186
FTUS43 KFGF 181720
TAFBJI
TAF
KBJI 181720Z 1818/1918 15010KT P6SM -SHRA BKN040
     FM181900 16011KT P6SM BKN035
     FM190500 15007KT P6SM BKN015
     FM190800 15008KT P6SM BKN008
     FM191600 14015KT P6SM BKN010=

USA.gov is the U.S. government's official web portal to all federal, state and local government web resources and services.